Terminal Aerodrome Forecast
Issued by NWS

Home | Current Version | Previous Version | Text Only | Print | Product List | Glossary On
Versions: 1 2 3 4 5 6 7 8 9 10 11 12 13 14 15
000
FTUS43 KGRR 261740
TAFLAN
TAF
KLAN 261740Z 2618/2718 23012KT P6SM BKN035
      TEMPO 2620/2622 5SM TSRA BR OVC025CB
     FM262300 19009KT P6SM SCT050
     FM270400 17004KT 4SM BR BKN250
     FM270900 15003KT 2SM BR SCT009
     FM271300 20008KT 4SM HZ BKN015=

USA.gov is the U.S. government's official web portal to all federal, state and local government web resources and services.